createdAt,value
2019-04-28T00:02:22.430Z,12.73
2019-04-28T00:04:51.449Z,8.90
2019-04-28T00:07:21.523Z,12.63
2019-04-28T00:09:52.017Z,11.40
2019-04-28T00:12:21.033Z,10.38
2019-04-28T00:14:51.643Z,10.25
2019-04-28T00:17:21.065Z,9.95
2019-04-28T00:19:51.546Z,10.28
2019-04-28T00:22:24.606Z,7.47
2019-04-28T00:24:55.106Z,11.93
2019-04-28T00:27:23.539Z,7.17
2019-04-28T00:29:52.311Z,11.53
2019-04-28T00:32:21.123Z,8.00
2019-04-28T00:34:51.195Z,10.10
2019-04-28T00:37:24.467Z,13.20
2019-04-28T00:39:52.965Z,13.95
2019-04-28T00:42:22.750Z,10.93
2019-04-28T00:44:51.555Z,12.60
2019-04-28T00:47:21.092Z,13.85
2019-04-28T00:49:49.634Z,12.68
2019-04-28T00:52:18.433Z,14.43
2019-04-28T00:54:47.188Z,8.73
2019-04-28T00:57:15.724Z,10.60
2019-04-28T00:59:54.040Z,8.05
2019-04-28T01:02:16.312Z,9.78
2019-04-28T01:04:44.734Z,18.15
2019-04-28T01:07:13.585Z,9.48
2019-04-28T01:09:42.022Z,16.02
2019-04-28T01:12:11.182Z,10.55
2019-04-28T01:14:54.556Z,11.03
2019-04-28T01:17:25.549Z,13.32
2019-04-28T01:20:10.857Z,9.70
2019-04-28T01:22:40.124Z,12.00
2019-04-28T01:25:10.634Z,16.05
2019-04-28T01:27:41.186Z,8.63
2019-04-28T01:30:11.471Z,13.00
2019-04-28T01:32:49.779Z,10.75
2019-04-28T01:35:20.889Z,17.10
2019-04-28T01:37:48.353Z,12.18
2019-04-28T01:40:16.966Z,8.23
2019-04-28T01:42:45.811Z,12.13
2019-04-28T01:45:14.261Z,10.15
2019-04-28T01:47:43.086Z,15.00
2019-04-28T01:50:11.584Z,10.90
2019-04-28T01:52:40.171Z,9.95
2019-04-28T01:55:10.145Z,10.30
2019-04-28T01:57:40.039Z,10.72
2019-04-28T02:00:22.250Z,11.40
2019-04-28T02:02:41.348Z,12.10
2019-04-28T02:05:09.819Z,10.35
2019-04-28T02:07:38.259Z,14.98
2019-04-28T02:10:07.593Z,13.22
2019-04-28T02:12:36.089Z,12.43
2019-04-28T02:15:12.806Z,10.23
2019-04-28T02:17:40.942Z,12.80
2019-04-28T02:20:10.397Z,9.85
2019-04-28T02:22:40.778Z,11.20
2019-04-28T02:25:10.000Z,7.80
2019-04-28T02:27:40.047Z,10.75
2019-04-28T02:30:11.436Z,11.83
2019-04-28T02:32:40.692Z,14.55
2019-04-28T02:35:10.641Z,8.85
2019-04-28T02:37:41.395Z,12.05
2019-04-28T02:40:10.609Z,9.80
2019-04-28T02:42:40.936Z,10.00
2019-04-28T02:45:11.691Z,12.55
2019-04-28T02:47:41.991Z,8.33
2019-04-28T02:50:12.484Z,10.10
2019-04-28T02:53:01.347Z,10.70
2019-04-28T02:55:31.593Z,13.48
2019-04-28T02:58:01.451Z,14.10
2019-04-28T03:00:31.739Z,12.50
2019-04-28T03:03:01.374Z,13.20
2019-04-28T03:05:33.423Z,13.70
2019-04-28T03:08:01.426Z,13.00
2019-04-28T03:10:31.005Z,18.25
2019-04-28T03:13:13.085Z,10.05
2019-04-28T03:15:41.551Z,14.83
2019-04-28T03:18:11.499Z,13.28
2019-04-28T03:20:41.880Z,11.08
2019-04-28T03:23:12.346Z,13.53
2019-04-28T03:25:50.618Z,14.55
2019-04-28T03:28:35.872Z,17.12
2019-04-28T03:31:34.643Z,10.28
2019-04-28T03:33:43.527Z,13.40
2019-04-28T03:36:08.551Z,16.20
2019-04-28T03:38:36.968Z,11.53
2019-04-28T03:41:05.453Z,15.53
2019-04-28T03:43:33.873Z,15.08
2019-04-28T03:46:04.318Z,10.88
2019-04-28T03:48:34.815Z,13.70
2019-04-28T03:51:03.339Z,15.25
2019-04-28T03:53:32.063Z,15.00
2019-04-28T03:56:01.581Z,14.90
2019-04-28T03:58:51.584Z,14.70
2019-04-28T04:01:20.824Z,12.98
2019-04-28T04:03:51.562Z,14.28
2019-04-28T04:06:19.486Z,10.13
2019-04-28T04:08:50.486Z,10.40
2019-04-28T04:11:20.336Z,12.25
2019-04-28T04:13:56.215Z,15.30
2019-04-28T04:16:26.660Z,13.00
2019-04-28T04:19:10.604Z,11.20
2019-04-28T04:21:40.685Z,8.43
2019-04-28T04:24:10.816Z,9.83
2019-04-28T04:26:40.932Z,11.63
2019-04-28T04:29:10.307Z,12.00
2019-04-28T04:31:41.141Z,11.30
2019-04-28T04:34:10.660Z,10.78
2019-04-28T04:36:41.796Z,11.78
2019-04-28T04:39:10.826Z,15.53
2019-04-28T04:41:42.940Z,12.73
2019-04-28T04:44:11.168Z,14.45
2019-04-28T04:46:41.436Z,13.53
2019-04-28T04:49:16.612Z,13.98
2019-04-28T04:51:45.378Z,19.82
2019-04-28T04:54:13.852Z,13.38
2019-04-28T04:56:42.344Z,12.82
2019-04-28T04:59:10.858Z,15.00
2019-04-28T05:01:43.991Z,16.70
2019-04-28T05:04:14.466Z,18.20
2019-04-28T05:06:45.669Z,12.53
2019-04-28T05:09:14.506Z,14.73
2019-04-28T05:11:43.062Z,13.22
2019-04-28T05:14:11.977Z,11.93
2019-04-28T05:16:40.647Z,12.78
2019-04-28T05:19:10.119Z,15.78
2019-04-28T05:21:40.159Z,15.75
2019-04-28T05:24:15.998Z,18.67
2019-04-28T05:26:47.869Z,12.90
2019-04-28T05:29:19.356Z,16.62
2019-04-28T05:31:46.053Z,18.32
2019-04-28T05:34:14.799Z,17.15
2019-04-28T05:36:44.618Z,18.85
2019-04-28T05:39:19.759Z,18.73
2019-04-28T05:41:50.284Z,21.87
2019-04-28T05:44:20.198Z,26.10
2019-04-28T05:46:50.648Z,20.52
2019-04-28T05:49:23.769Z,17.07
2019-04-28T05:51:53.884Z,17.92
2019-04-28T05:54:24.102Z,20.55
2019-04-28T05:57:02.414Z,19.00
2019-04-28T05:59:47.563Z,17.55
2019-04-28T06:02:26.671Z,20.77
2019-04-28T06:04:56.140Z,16.48
2019-04-28T06:07:40.427Z,26.17
2019-04-28T06:10:10.186Z,26.42
2019-04-28T06:12:40.585Z,19.55
2019-04-28T06:15:11.766Z,16.23
2019-04-28T06:17:39.781Z,16.97
2019-04-28T06:20:11.441Z,19.15
2019-04-28T06:22:38.544Z,16.07
2019-04-28T06:25:06.922Z,20.77
2019-04-28T06:27:35.700Z,19.17
2019-04-28T06:30:05.680Z,18.65
2019-04-28T06:32:35.547Z,13.55
2019-04-28T06:35:06.129Z,12.30
2019-04-28T06:37:34.572Z,19.23
2019-04-28T06:40:05.365Z,15.80
2019-04-28T06:42:33.947Z,14.68
2019-04-28T06:45:02.503Z,12.00
2019-04-28T06:47:31.354Z,11.85
2019-04-28T06:50:00.249Z,12.45
2019-04-28T06:52:28.699Z,16.73
2019-04-28T06:54:57.127Z,14.33
2019-04-28T06:57:25.717Z,10.05
2019-04-28T06:59:54.147Z,10.72
2019-04-28T07:02:22.999Z,7.55
2019-04-28T07:05:01.220Z,9.18
2019-04-28T07:07:21.614Z,11.88
2019-04-28T07:09:50.041Z,9.40
2019-04-28T07:12:18.588Z,10.32
2019-04-28T07:14:47.361Z,11.50
2019-04-28T07:17:15.826Z,8.93
2019-04-28T07:19:46.581Z,10.03
2019-04-28T07:22:22.957Z,8.85
2019-04-28T07:24:51.996Z,13.20
2019-04-28T07:27:20.914Z,7.87
2019-04-28T07:29:49.392Z,9.95
2019-04-28T07:32:18.111Z,9.40
2019-04-28T07:34:46.615Z,13.53
2019-04-28T07:37:15.597Z,12.35
2019-04-28T07:39:44.156Z,8.45
2019-04-28T07:42:12.650Z,10.78
2019-04-28T07:44:41.784Z,10.43
2019-04-28T07:47:10.262Z,7.17
2019-04-28T07:49:39.057Z,9.95
2019-04-28T07:52:12.759Z,9.78
2019-04-28T07:54:41.602Z,11.90
2019-04-28T07:57:10.072Z,10.58
2019-04-28T07:59:38.601Z,9.50
2019-04-28T08:02:07.219Z,13.55
2019-04-28T08:04:36.102Z,12.40
2019-04-28T08:07:04.598Z,7.55
2019-04-28T08:09:33.390Z,11.03
2019-04-28T08:12:06.784Z,8.35
2019-04-28T08:14:35.590Z,12.13
2019-04-28T08:17:04.056Z,10.58
2019-04-28T08:19:32.954Z,12.88
2019-04-28T08:22:01.604Z,6.97
2019-04-28T08:24:30.441Z,6.97
2019-04-28T08:26:59.060Z,7.72
2019-04-28T08:29:27.533Z,7.08
2019-04-28T08:32:12.905Z,7.22
2019-04-28T08:34:41.675Z,11.38
2019-04-28T08:37:10.057Z,7.78
2019-04-28T08:39:38.595Z,6.30
2019-04-28T08:42:07.027Z,7.33
2019-04-28T08:44:35.595Z,7.85
2019-04-28T08:47:04.105Z,7.28
2019-04-28T08:49:32.615Z,10.15
2019-04-28T08:52:01.127Z,8.85
2019-04-28T08:54:49.500Z,6.03
2019-04-28T08:57:18.074Z,7.75
2019-04-28T08:59:47.002Z,7.40
2019-04-28T09:02:15.520Z,8.08
2019-04-28T09:04:44.006Z,8.55
2019-04-28T09:07:12.702Z,8.05
2019-04-28T09:09:41.318Z,5.33
2019-04-28T09:12:09.975Z,7.28
2019-04-28T09:14:38.939Z,6.50
2019-04-28T09:17:07.871Z,6.80
2019-04-28T09:19:36.301Z,6.80
2019-04-28T09:22:05.318Z,4.87
2019-04-28T09:24:34.412Z,6.25
2019-04-28T09:27:02.904Z,5.42
2019-04-28T09:29:31.424Z,9.28
2019-04-28T09:32:00.593Z,7.03
2019-04-28T09:34:29.207Z,5.92
2019-04-28T09:36:58.115Z,6.53
2019-04-28T09:39:28.906Z,5.60
2019-04-28T09:42:15.516Z,4.28
2019-04-28T09:44:44.251Z,8.78
2019-04-28T09:47:12.877Z,5.08
2019-04-28T09:49:41.820Z,6.35
2019-04-28T09:52:10.567Z,5.17
2019-04-28T09:54:39.396Z,6.80
2019-04-28T09:57:07.824Z,5.60
2019-04-28T09:59:38.554Z,5.50
2019-04-28T10:02:07.574Z,6.53
2019-04-28T10:04:41.603Z,5.03
2019-04-28T10:07:07.035Z,4.22
2019-04-28T10:09:35.673Z,3.98
2019-04-28T10:12:05.375Z,3.90
2019-04-28T10:14:34.280Z,5.83
2019-04-28T10:17:02.817Z,5.53
2019-04-28T10:19:32.678Z,5.47
2019-04-28T10:22:01.351Z,6.42
2019-04-28T10:24:29.904Z,5.75
2019-04-28T10:27:01.390Z,4.60
2019-04-28T10:29:32.795Z,4.50
2019-04-28T10:32:00.578Z,5.58
2019-04-28T10:34:29.424Z,7.00
2019-04-28T10:36:58.690Z,6.87
2019-04-28T10:39:34.582Z,6.15
2019-04-28T10:42:04.338Z,7.08
2019-04-28T10:44:34.421Z,6.15
2019-04-28T10:47:12.316Z,6.20
2019-04-28T10:49:41.150Z,7.62
2019-04-28T10:52:09.711Z,7.70
2019-04-28T10:54:38.349Z,5.58
2019-04-28T10:57:08.173Z,5.33
2019-04-28T10:59:44.058Z,4.70
2019-04-28T11:02:13.068Z,7.42
2019-04-28T11:04:43.380Z,7.20
2019-04-28T11:07:13.886Z,5.42
2019-04-28T11:09:47.195Z,6.47
2019-04-28T11:12:29.405Z,6.42
2019-04-28T11:14:58.374Z,4.95
2019-04-28T11:17:27.594Z,5.58
2019-04-28T11:19:58.242Z,6.00
2019-04-28T11:22:27.471Z,6.15
2019-04-28T11:24:56.725Z,6.10
2019-04-28T11:27:27.481Z,5.33
2019-04-28T11:29:56.188Z,5.58
2019-04-28T11:32:24.904Z,8.25
2019-04-28T11:34:55.076Z,4.33
2019-04-28T11:37:23.756Z,8.50
2019-04-28T11:39:52.676Z,5.67
2019-04-28T11:42:22.364Z,6.70
2019-04-28T11:44:53.090Z,5.65
2019-04-28T11:47:23.428Z,6.30
2019-04-28T11:49:54.695Z,7.03
2019-04-28T11:52:23.139Z,3.95
2019-04-28T11:54:51.557Z,5.28
2019-04-28T11:57:21.982Z,5.15
2019-04-28T11:59:50.454Z,9.65
2019-04-28T12:02:19.549Z,6.70
2019-04-28T12:04:48.068Z,6.85
2019-04-28T12:07:22.796Z,9.85
2019-04-28T12:10:03.713Z,4.42
2019-04-28T12:12:33.646Z,10.05
2019-04-28T12:15:13.182Z,5.37
2019-04-28T12:18:04.519Z,5.12
2019-04-28T12:20:33.365Z,4.62
2019-04-28T12:23:01.866Z,4.15
2019-04-28T12:25:30.711Z,4.60
2019-04-28T12:27:59.133Z,5.15
2019-04-28T12:30:27.729Z,4.37
2019-04-28T12:32:56.204Z,4.85
2019-04-28T12:35:25.801Z,5.62
2019-04-28T12:37:54.265Z,7.78
2019-04-28T12:40:23.113Z,6.40
2019-04-28T12:42:51.950Z,6.72
2019-04-28T12:45:20.421Z,6.50
2019-04-28T12:47:48.938Z,5.62
2019-04-28T12:50:22.225Z,7.45
2019-04-28T12:52:51.100Z,8.53
2019-04-28T12:55:19.629Z,8.98
2019-04-28T12:57:54.421Z,5.95
2019-04-28T13:00:24.533Z,4.70
2019-04-28T13:03:11.091Z,4.80
2019-04-28T13:06:00.126Z,4.67
2019-04-28T13:08:17.534Z,5.47
2019-04-28T13:10:45.957Z,6.22
2019-04-28T13:13:14.792Z,5.03
2019-04-28T13:15:58.507Z,4.53
2019-04-28T13:18:27.405Z,5.45
2019-04-28T13:20:55.888Z,7.10
2019-04-28T13:23:27.455Z,5.95
2019-04-28T13:25:56.228Z,5.70
2019-04-28T13:28:24.766Z,6.35
2019-04-28T13:30:53.361Z,6.10
2019-04-28T13:33:21.862Z,6.37
2019-04-28T13:35:50.786Z,8.08
2019-04-28T13:38:33.480Z,9.08
2019-04-28T13:41:02.122Z,7.62
2019-04-28T13:43:32.727Z,7.35
2019-04-28T13:46:01.393Z,6.22
2019-04-28T13:48:30.012Z,7.00
2019-04-28T13:50:59.094Z,9.23
2019-04-28T13:53:27.962Z,6.80
2019-04-28T13:55:58.171Z,8.58
2019-04-28T13:58:32.109Z,5.85
2019-04-28T14:01:14.540Z,8.85
2019-04-28T14:03:53.587Z,7.17
2019-04-28T14:06:28.618Z,5.53
2019-04-28T14:08:59.309Z,6.60
2019-04-28T14:11:28.496Z,5.40
2019-04-28T14:13:57.314Z,6.33
2019-04-28T14:16:26.028Z,7.90
2019-04-28T14:18:54.892Z,5.28
2019-04-28T14:21:29.467Z,5.60
2019-04-28T14:23:58.445Z,5.97
2019-04-28T14:26:30.396Z,8.05
2019-04-28T14:28:59.557Z,5.78
2019-04-28T14:31:28.037Z,4.08
2019-04-28T14:33:56.561Z,7.15
2019-04-28T14:36:40.890Z,4.58
2019-04-28T14:39:01.059Z,4.75
2019-04-28T14:41:29.553Z,7.43
2019-04-28T14:43:58.106Z,6.17
2019-04-28T14:46:26.579Z,7.62
2019-04-28T14:48:55.727Z,4.42
2019-04-28T14:51:25.531Z,3.55
2019-04-28T14:53:54.474Z,5.80
2019-04-28T14:56:24.231Z,6.80
2019-04-28T14:58:52.986Z,6.47
2019-04-28T15:01:37.346Z,8.10
2019-04-28T15:04:16.543Z,4.55
2019-04-28T15:06:55.738Z,3.67
2019-04-28T15:09:27.821Z,8.68
2019-04-28T15:11:57.910Z,5.03
2019-04-28T15:14:26.580Z,6.35
2019-04-28T15:17:25.092Z,6.70
2019-04-28T15:19:54.455Z,3.62
2019-04-28T15:22:23.442Z,6.42
2019-04-28T15:24:51.946Z,5.60
2019-04-28T15:27:20.436Z,5.50
2019-04-28T15:29:50.290Z,4.70
2019-04-28T15:32:19.040Z,2.95
2019-04-28T15:34:48.210Z,3.08
2019-04-28T15:37:17.367Z,4.60
2019-04-28T15:39:46.078Z,5.08
2019-04-28T15:42:14.705Z,2.98
2019-04-28T15:44:43.321Z,5.83
2019-04-28T15:47:12.427Z,4.10
2019-04-28T15:49:41.005Z,4.78
2019-04-28T15:52:10.117Z,5.12
2019-04-28T15:54:38.853Z,4.75
2019-04-28T15:57:07.282Z,5.00
2019-04-28T15:59:35.867Z,5.92
2019-04-28T16:02:04.420Z,7.47
2019-04-28T16:04:33.245Z,5.92
2019-04-28T16:07:02.295Z,3.85
2019-04-28T16:09:30.825Z,4.95
2019-04-28T16:11:59.623Z,5.58
2019-04-28T16:14:28.052Z,5.10
2019-04-28T16:16:56.487Z,6.08
2019-04-28T16:19:25.063Z,5.10
2019-04-28T16:21:53.803Z,5.22
2019-04-28T16:24:25.595Z,5.17
2019-04-28T16:26:54.554Z,7.05
2019-04-28T16:29:23.162Z,5.75
2019-04-28T16:31:51.709Z,4.60
2019-04-28T16:34:20.343Z,5.87
2019-04-28T16:36:48.875Z,5.35
2019-04-28T16:39:17.637Z,4.90
2019-04-28T16:41:47.200Z,4.75
2019-04-28T16:44:16.248Z,4.58
2019-04-28T16:46:45.067Z,7.30
2019-04-28T16:49:13.969Z,5.10
2019-04-28T16:51:42.419Z,4.47
2019-04-28T16:54:11.281Z,5.97
2019-04-28T16:56:44.586Z,6.97
2019-04-28T16:59:20.359Z,6.05
2019-04-28T17:01:54.104Z,4.05
2019-04-28T17:04:22.897Z,5.03
2019-04-28T17:06:51.682Z,5.25
2019-04-28T17:09:21.416Z,4.17
2019-04-28T17:11:54.774Z,3.70
2019-04-28T17:14:32.128Z,6.25
2019-04-28T17:17:01.000Z,5.28
2019-04-28T17:19:29.541Z,4.40
2019-04-28T17:21:58.516Z,7.72
2019-04-28T17:24:27.162Z,5.75
2019-04-28T17:26:55.639Z,4.95
2019-04-28T17:29:24.511Z,5.53
2019-04-28T17:31:53.681Z,4.37
2019-04-28T17:34:31.368Z,5.10
2019-04-28T17:37:04.876Z,5.20
2019-04-28T17:39:33.995Z,5.28
2019-04-28T17:42:02.943Z,5.10
2019-04-28T17:44:31.440Z,4.80
2019-04-28T17:47:00.026Z,4.95
2019-04-28T17:49:31.332Z,5.08
2019-04-28T17:51:59.901Z,6.37
2019-04-28T17:54:28.507Z,5.30
2019-04-28T17:56:57.394Z,5.42
2019-04-28T17:59:26.133Z,4.50
2019-04-28T18:02:12.407Z,5.67
2019-04-28T18:04:43.073Z,4.65
2019-04-28T18:07:22.311Z,6.33
2019-04-28T18:09:50.793Z,6.45
2019-04-28T18:12:23.533Z,4.70
2019-04-28T18:14:54.100Z,6.17
2019-04-28T18:17:24.652Z,4.85
2019-04-28T18:19:53.601Z,7.62
2019-04-28T18:22:22.373Z,4.05
2019-04-28T18:24:51.287Z,4.85
2019-04-28T18:27:19.782Z,6.40
2019-04-28T18:29:48.769Z,5.47
2019-04-28T18:32:35.236Z,5.53
2019-04-28T18:35:10.857Z,4.50
2019-04-28T18:37:58.013Z,5.70
2019-04-28T18:40:46.253Z,6.55
2019-04-28T18:43:19.097Z,5.62
2019-04-28T18:48:15.694Z,6.00
2019-04-28T18:50:44.222Z,5.80
2019-04-28T18:53:12.735Z,4.70
2019-04-28T18:55:41.372Z,5.42
2019-04-28T18:58:10.428Z,5.00
2019-04-28T19:00:40.817Z,6.05
2019-04-28T19:03:09.256Z,7.35
2019-04-28T19:05:39.717Z,5.10
2019-04-28T19:08:19.207Z,5.87
2019-04-28T19:11:04.724Z,5.90
2019-04-28T19:13:34.815Z,6.25
2019-04-28T19:16:04.916Z,6.33
2019-04-28T19:18:41.166Z,7.08
2019-04-28T19:21:09.640Z,5.58
2019-04-28T19:23:38.070Z,5.15
2019-04-28T19:26:06.505Z,6.95
2019-04-28T19:28:34.972Z,5.95
2019-04-28T19:31:03.397Z,6.28
2019-04-28T19:33:32.257Z,7.35
2019-04-28T19:36:00.679Z,5.75
2019-04-28T19:38:29.306Z,6.20
2019-04-28T19:40:57.804Z,7.92
2019-04-28T19:43:26.620Z,4.92
2019-04-28T19:45:56.694Z,11.10
2019-04-28T19:48:25.162Z,8.70
2019-04-28T19:51:02.421Z,6.00
2019-04-28T19:53:31.937Z,6.55
2019-04-28T19:56:03.086Z,6.15
2019-04-28T19:58:33.218Z,5.97
2019-04-28T20:01:03.595Z,6.15
2019-04-28T20:03:44.321Z,6.33
2019-04-28T20:06:12.754Z,5.97
2019-04-28T20:08:41.205Z,5.50
2019-04-28T20:11:10.042Z,7.37
2019-04-28T20:13:48.355Z,5.50
2019-04-28T20:16:16.901Z,7.87
2019-04-28T20:18:48.656Z,7.15
2019-04-28T20:21:15.913Z,6.22
2019-04-28T20:23:59.700Z,6.37
2019-04-28T20:26:28.576Z,5.85
2019-04-28T20:29:03.121Z,6.25
2019-04-28T20:31:33.869Z,8.40
2019-04-28T20:34:02.632Z,5.72
2019-04-28T20:36:36.316Z,8.30
2019-04-28T20:39:08.321Z,6.62
2019-04-28T20:41:46.202Z,6.45
2019-04-28T20:44:15.652Z,6.03
2019-04-28T20:46:51.873Z,6.40
2019-04-28T20:49:20.763Z,5.92
2019-04-28T20:51:49.254Z,5.87
2019-04-28T20:54:17.710Z,7.08
2019-04-28T20:56:46.167Z,13.68
2019-04-28T20:59:14.659Z,5.40
2019-04-28T21:01:43.165Z,5.67
2019-04-28T21:04:11.634Z,6.22
2019-04-28T21:06:40.074Z,6.55
2019-04-28T21:09:09.724Z,5.87
2019-04-28T21:11:38.292Z,6.37
2019-04-28T21:14:07.684Z,6.42
2019-04-28T21:16:36.557Z,6.20
2019-04-28T21:19:05.064Z,7.28
2019-04-28T21:21:35.759Z,8.35
2019-04-28T21:24:04.206Z,8.08
2019-04-28T21:26:32.734Z,8.73
2019-04-28T21:29:01.285Z,9.60
2019-04-28T21:31:32.764Z,10.78
2019-04-28T21:34:01.045Z,8.33
2019-04-28T21:36:29.526Z,8.98
2019-04-28T21:38:57.991Z,8.63
2019-04-28T21:41:26.854Z,7.45
2019-04-28T21:44:00.250Z,6.78
2019-04-28T21:46:33.289Z,5.72
2019-04-28T21:49:03.676Z,7.33
2019-04-28T21:51:38.500Z,7.60
2019-04-28T21:54:06.950Z,6.62
2019-04-28T21:56:35.428Z,6.78
2019-04-28T21:59:06.707Z,8.05
2019-04-28T22:01:35.513Z,8.68
2019-04-28T22:04:04.222Z,7.58
2019-04-28T22:06:32.652Z,8.93
2019-04-28T22:09:01.146Z,8.40
2019-04-28T22:11:30.278Z,7.53
2019-04-28T22:13:58.718Z,7.05
2019-04-28T22:16:27.317Z,6.40
2019-04-28T22:18:56.067Z,8.28
2019-04-28T22:21:24.922Z,8.10
2019-04-28T22:24:03.934Z,9.95
2019-04-28T22:26:49.073Z,17.35
2019-04-28T22:29:17.574Z,10.03
2019-04-28T22:31:46.605Z,7.28
2019-04-28T22:34:15.273Z,7.28
2019-04-28T22:36:44.886Z,6.80
2019-04-28T22:39:13.548Z,8.48
2019-04-28T22:41:42.015Z,6.90
2019-04-28T22:44:11.768Z,7.33
2019-04-28T22:46:40.219Z,7.92
2019-04-28T22:49:21.173Z,8.50
2019-04-28T22:51:50.046Z,8.80
2019-04-28T22:54:25.685Z,9.73
2019-04-28T22:56:56.090Z,12.03
2019-04-28T22:59:29.218Z,10.38
2019-04-28T23:02:14.389Z,8.40
2019-04-28T23:04:44.497Z,7.78
2019-04-28T23:07:13.112Z,8.00
2019-04-28T23:09:41.535Z,6.22
2019-04-28T23:12:10.477Z,6.22
2019-04-28T23:14:39.422Z,7.03
2019-04-28T23:17:09.565Z,7.55
2019-04-28T23:19:39.625Z,7.35
2019-04-28T23:22:09.728Z,11.95
2019-04-28T23:24:38.276Z,7.78
2019-04-28T23:27:07.651Z,10.30
2019-04-28T23:29:36.076Z,9.55
2019-04-28T23:32:04.743Z,6.67
2019-04-28T23:34:33.223Z,6.15
2019-04-28T23:37:01.641Z,4.45
2019-04-28T23:39:30.175Z,7.85
2019-04-28T23:42:06.336Z,6.90
2019-04-28T23:44:34.844Z,11.00
2019-04-28T23:47:05.034Z,10.20
2019-04-28T23:49:33.828Z,9.68
2019-04-28T23:52:25.137Z,8.23
2019-04-28T23:54:55.562Z,8.05
2019-04-28T23:57:24.021Z,10.00
2019-04-28T23:59:52.490Z,9.15
